Terminal Aerodrome Forecast
Issued by NWS

Home | Current Version | Previous Version | Text Only | Print | Product List | Glossary On
Versions: 1 2 3 4 5 6 7 8 9 10 11 12 13 14 15
665
FTUS43 KMQT 262339
TAFIWD
TAF
KIWD 262339Z 2700/2724 36004KT 2SM BR OVC003
     FM271400 01003KT 2SM BR OVC008
     FM271600 01004KT 5SM BR OVC010
     FM271900 36005KT P6SM OVC025
     FM272000 01005KT P6SM BKN035
     FM272200 01004KT P6SM BKN060=

USA.gov is the U.S. government's official web portal to all federal, state and local government web resources and services.